sensor_id;sensor_type;location;lat;lon;timestamp;pressure;altitude;pressure_sealevel;temperature;humidity
63819;BME280;49970;54.976;73.248;2024-03-02T00:00:20;101475.84;;;-5.15;95.33
63819;BME280;49970;54.976;73.248;2024-03-02T00:02:48;101487.91;;;-5.15;95.65
63819;BME280;49970;54.976;73.248;2024-03-02T00:05:17;101487.00;;;-5.20;94.86
63819;BME280;49970;54.976;73.248;2024-03-02T00:07:52;101489.56;;;-5.22;94.81
63819;BME280;49970;54.976;73.248;2024-03-02T00:10:22;101494.69;;;-5.23;95.63
63819;BME280;49970;54.976;73.248;2024-03-02T00:12:58;101477.31;;;-5.35;94.88
63819;BME280;49970;54.976;73.248;2024-03-02T00:15:40;101497.19;;;-5.31;94.76
63819;BME280;49970;54.976;73.248;2024-03-02T00:18:11;101501.47;;;-5.35;94.77
63819;BME280;49970;54.976;73.248;2024-03-02T00:20:39;101510.88;;;-5.38;94.95
63819;BME280;49970;54.976;73.248;2024-03-02T00:23:07;101518.56;;;-5.40;95.01
63819;BME280;49970;54.976;73.248;2024-03-02T00:25:41;101523.72;;;-5.43;94.94
63819;BME280;49970;54.976;73.248;2024-03-02T00:30:55;101521.03;;;-5.51;94.76
63819;BME280;49970;54.976;73.248;2024-03-02T00:33:36;101524.47;;;-5.52;94.54
63819;BME280;49970;54.976;73.248;2024-03-02T00:36:04;101528.72;;;-5.52;94.66
63819;BME280;49970;54.976;73.248;2024-03-02T00:38:31;101522.75;;;-5.49;94.97
63819;BME280;49970;54.976;73.248;2024-03-02T00:41:06;101531.38;;;-5.49;94.82
63819;BME280;49970;54.976;73.248;2024-03-02T00:46:12;101538.31;;;-5.46;94.80
63819;BME280;49970;54.976;73.248;2024-03-02T00:51:21;101543.41;;;-5.49;94.36
63819;BME280;49970;54.976;73.248;2024-03-02T00:53:47;101539.06;;;-5.54;94.21
63819;BME280;49970;54.976;73.248;2024-03-02T00:56:14;101528.59;;;-5.63;94.28
63819;BME280;49970;54.976;73.248;2024-03-02T00:58:41;101536.41;;;-5.60;94.39
63819;BME280;49970;54.976;73.248;2024-03-02T01:01:07;101535.47;;;-5.63;94.27
63819;BME280;49970;54.976;73.248;2024-03-02T01:03:34;101533.72;;;-5.66;94.21
63819;BME280;49970;54.976;73.248;2024-03-02T01:06:00;101532.72;;;-5.74;94.03
63819;BME280;49970;54.976;73.248;2024-03-02T01:08:27;101542.25;;;-5.70;93.95
63819;BME280;49970;54.976;73.248;2024-03-02T01:10:54;101542.19;;;-5.73;93.86
63819;BME280;49970;54.976;73.248;2024-03-02T01:13:22;101547.34;;;-5.73;93.82
63819;BME280;49970;54.976;73.248;2024-03-02T01:15:49;101550.78;;;-5.76;94.18
63819;BME280;49970;54.976;73.248;2024-03-02T01:18:16;101551.63;;;-5.75;93.68
63819;BME280;49970;54.976;73.248;2024-03-02T01:20:42;101556.75;;;-5.78;94.41
63819;BME280;49970;54.976;73.248;2024-03-02T01:23:09;101553.38;;;-5.74;93.58
63819;BME280;49970;54.976;73.248;2024-03-02T01:25:36;101559.41;;;-5.73;94.17
63819;BME280;49970;54.976;73.248;2024-03-02T01:28:02;101562.03;;;-5.70;93.96
63819;BME280;49970;54.976;73.248;2024-03-02T01:30:29;101570.69;;;-5.65;93.77
63819;BME280;49970;54.976;73.248;2024-03-02T01:32:55;101575.94;;;-5.61;93.92
63819;BME280;49970;54.976;73.248;2024-03-02T01:35:22;101572.59;;;-5.55;93.83
63819;BME280;49970;54.976;73.248;2024-03-02T01:37:48;101583.88;;;-5.48;93.23
63819;BME280;49970;54.976;73.248;2024-03-02T01:40:14;101571.88;;;-5.43;93.30
63819;BME280;49970;54.976;73.248;2024-03-02T01:42:41;101582.31;;;-5.39;93.53
63819;BME280;49970;54.976;73.248;2024-03-02T01:45:08;101583.19;;;-5.35;93.57
63819;BME280;49970;54.976;73.248;2024-03-02T01:47:35;101582.38;;;-5.31;93.46
63819;BME280;49970;54.976;73.248;2024-03-02T01:50:01;101597.09;;;-5.27;93.38
63819;BME280;49970;54.976;73.248;2024-03-02T01:52:28;101584.22;;;-5.24;93.41
63819;BME280;49970;54.976;73.248;2024-03-02T01:54:55;101580.78;;;-5.23;93.68
63819;BME280;49970;54.976;73.248;2024-03-02T01:57:22;101604.03;;;-5.23;93.21
63819;BME280;49970;54.976;73.248;2024-03-02T01:59:49;101598.91;;;-5.21;93.33
63819;BME280;49970;54.976;73.248;2024-03-02T02:02:17;101601.50;;;-5.18;93.58
63819;BME280;49970;54.976;73.248;2024-03-02T02:04:43;101606.72;;;-5.17;92.72
63819;BME280;49970;54.976;73.248;2024-03-02T02:07:10;101602.41;;;-5.16;93.23
63819;BME280;49970;54.976;73.248;2024-03-02T02:09:36;101605.88;;;-5.14;93.03
63819;BME280;49970;54.976;73.248;2024-03-02T02:12:03;101620.53;;;-5.13;92.90
63819;BME280;49970;54.976;73.248;2024-03-02T02:14:32;101626.53;;;-5.14;93.19
63819;BME280;49970;54.976;73.248;2024-03-02T02:16:59;101616.19;;;-5.17;93.43
63819;BME280;49970;54.976;73.248;2024-03-02T02:19:26;101620.50;;;-5.16;93.38
63819;BME280;49970;54.976;73.248;2024-03-02T02:21:52;101637.78;;;-5.12;92.58
63819;BME280;49970;54.976;73.248;2024-03-02T02:24:18;101646.41;;;-5.10;92.79
63819;BME280;49970;54.976;73.248;2024-03-02T02:26:45;101638.66;;;-5.10;92.93
63819;BME280;49970;54.976;73.248;2024-03-02T02:29:11;101642.13;;;-5.10;92.97
63819;BME280;49970;54.976;73.248;2024-03-02T02:31:42;101649.88;;;-5.08;93.07
63819;BME280;49970;54.976;73.248;2024-03-02T02:34:18;101643.84;;;-5.09;93.36
63819;BME280;49970;54.976;73.248;2024-03-02T02:36:45;101656.78;;;-5.07;92.74
63819;BME280;49970;54.976;73.248;2024-03-02T02:39:15;101655.06;;;-5.07;92.75
63819;BME280;49970;54.976;73.248;2024-03-02T02:41:43;101643.00;;;-5.09;93.19
63819;BME280;49970;54.976;73.248;2024-03-02T02:44:10;101651.66;;;-5.06;93.11
63819;BME280;49970;54.976;73.248;2024-03-02T02:46:39;101660.28;;;-5.05;93.23
63819;BME280;49970;54.976;73.248;2024-03-02T02:49:06;101667.16;;;-5.04;93.15
63819;BME280;49970;54.976;73.248;2024-03-02T02:51:33;101657.69;;;-5.05;93.17
63819;BME280;49970;54.976;73.248;2024-03-02T02:53:59;101673.19;;;-5.04;92.45
63819;BME280;49970;54.976;73.248;2024-03-02T02:56:25;101667.97;;;-5.07;92.75
63819;BME280;49970;54.976;73.248;2024-03-02T02:58:52;101671.47;;;-5.03;92.87
63819;BME280;49970;54.976;73.248;2024-03-02T03:01:18;101680.16;;;-4.99;92.65
63819;BME280;49970;54.976;73.248;2024-03-02T03:03:45;101688.78;;;-4.97;92.54
63819;BME280;49970;54.976;73.248;2024-03-02T03:06:12;101684.50;;;-4.95;92.70
63819;BME280;49970;54.976;73.248;2024-03-02T03:08:38;101694.00;;;-4.94;92.46
63819;BME280;49970;54.976;73.248;2024-03-02T03:11:05;101686.28;;;-4.93;91.82
63819;BME280;49970;54.976;73.248;2024-03-02T03:13:32;101693.19;;;-4.90;92.01
63819;BME280;49970;54.976;73.248;2024-03-02T03:15:58;101691.44;;;-4.93;92.41
63819;BME280;49970;54.976;73.248;2024-03-02T03:18:25;101695.84;;;-4.87;91.96
63819;BME280;49970;54.976;73.248;2024-03-02T03:20:52;101701.00;;;-4.87;91.91
63819;BME280;49970;54.976;73.248;2024-03-02T03:23:18;101699.34;;;-4.82;92.27
63819;BME280;49970;54.976;73.248;2024-03-02T03:25:44;101708.00;;;-4.79;91.92
63819;BME280;49970;54.976;73.248;2024-03-02T03:28:11;101721.00;;;-4.76;91.69
63819;BME280;49970;54.976;73.248;2024-03-02T03:30:38;101712.44;;;-4.71;91.42
63819;BME280;49970;54.976;73.248;2024-03-02T03:33:05;101697.91;;;-4.62;91.88
63819;BME280;49970;54.976;73.248;2024-03-02T03:35:36;101701.47;;;-4.52;91.33
63819;BME280;49970;54.976;73.248;2024-03-02T03:38:03;101702.47;;;-4.42;90.92
63819;BME280;49970;54.976;73.248;2024-03-02T03:40:29;101694.69;;;-4.44;90.34
63819;BME280;49970;54.976;73.248;2024-03-02T03:42:56;101700.81;;;-4.39;89.81
63819;BME280;49970;54.976;73.248;2024-03-02T03:45:22;101711.16;;;-4.37;90.36
63819;BME280;49970;54.976;73.248;2024-03-02T03:47:51;101708.56;;;-4.36;90.50
63819;BME280;49970;54.976;73.248;2024-03-02T03:50:17;101719.81;;;-4.34;90.55
63819;BME280;49970;54.976;73.248;2024-03-02T03:52:44;101721.56;;;-4.33;89.74
63819;BME280;49970;54.976;73.248;2024-03-02T03:55:10;101726.72;;;-4.34;89.65
63819;BME280;49970;54.976;73.248;2024-03-02T03:57:36;101736.16;;;-4.35;88.84
63819;BME280;49970;54.976;73.248;2024-03-02T04:00:03;101735.34;;;-4.34;89.29
63819;BME280;49970;54.976;73.248;2024-03-02T04:02:38;101736.16;;;-4.36;89.62
63819;BME280;49970;54.976;73.248;2024-03-02T04:05:05;101739.59;;;-4.36;89.13
63819;BME280;49970;54.976;73.248;2024-03-02T04:07:36;101732.72;;;-4.35;89.30
63819;BME280;49970;54.976;73.248;2024-03-02T04:10:10;101739.66;;;-4.33;88.88
63819;BME280;49970;54.976;73.248;2024-03-02T04:12:36;101742.25;;;-4.33;88.85
63819;BME280;49970;54.976;73.248;2024-03-02T04:15:04;101764.72;;;-4.30;89.05
63819;BME280;49970;54.976;73.248;2024-03-02T04:17:51;101755.22;;;-4.28;88.87
63819;BME280;49970;54.976;73.248;2024-03-02T04:20:18;101750.16;;;-4.22;89.52
63819;BME280;49970;54.976;73.248;2024-03-02T04:22:44;101754.53;;;-4.15;89.35
63819;BME280;49970;54.976;73.248;2024-03-02T04:25:11;101767.53;;;-4.10;88.67
63819;BME280;49970;54.976;73.248;2024-03-02T04:27:38;101763.25;;;-4.07;88.94
63819;BME280;49970;54.976;73.248;2024-03-02T04:30:05;101741.59;;;-4.16;88.48
63819;BME280;49970;54.976;73.248;2024-03-02T04:32:31;101761.47;;;-4.11;88.67
63819;BME280;49970;54.976;73.248;2024-03-02T04:34:58;101776.19;;;-4.08;88.54
63819;BME280;49970;54.976;73.248;2024-03-02T04:37:24;101766.66;;;-4.12;87.98
63819;BME280;49970;54.976;73.248;2024-03-02T04:39:51;101766.69;;;-4.09;88.94
63819;BME280;49970;54.976;73.248;2024-03-02T04:42:17;101771.91;;;-4.05;88.27
63819;BME280;49970;54.976;73.248;2024-03-02T04:44:43;101774.47;;;-4.06;88.33
63819;BME280;49970;54.976;73.248;2024-03-02T04:47:10;101775.34;;;-4.06;88.88
63819;BME280;49970;54.976;73.248;2024-03-02T04:49:36;101788.31;;;-4.03;88.57
63819;BME280;49970;54.976;73.248;2024-03-02T04:52:03;101776.25;;;-4.04;88.94
63819;BME280;49970;54.976;73.248;2024-03-02T04:54:29;101780.56;;;-4.03;88.88
63819;BME280;49970;54.976;73.248;2024-03-02T04:56:56;101776.25;;;-4.04;88.79
63819;BME280;49970;54.976;73.248;2024-03-02T04:59:22;101780.66;;;-3.95;88.28
63819;BME280;49970;54.976;73.248;2024-03-02T05:01:49;101777.19;;;-3.95;88.17
63819;BME280;49970;54.976;73.248;2024-03-02T05:04:15;101783.19;;;-3.99;88.10
63819;BME280;49970;54.976;73.248;2024-03-02T05:06:42;101781.41;;;-4.02;88.02
63819;BME280;49970;54.976;73.248;2024-03-02T05:09:09;101784.00;;;-4.04;87.47
63819;BME280;49970;54.976;73.248;2024-03-02T05:11:35;101783.09;;;-4.06;87.84
63819;BME280;49970;54.976;73.248;2024-03-02T05:14:05;101786.53;;;-4.07;87.39
63819;BME280;49970;54.976;73.248;2024-03-02T05:16:35;101795.16;;;-4.09;88.02
63819;BME280;49970;54.976;73.248;2024-03-02T05:19:04;101794.22;;;-4.14;87.00
63819;BME280;49970;54.976;73.248;2024-03-02T05:21:33;101807.13;;;-4.16;87.08
63819;BME280;49970;54.976;73.248;2024-03-02T05:24:00;101798.50;;;-4.16;87.24
63819;BME280;49970;54.976;73.248;2024-03-02T05:26:26;101795.00;;;-4.21;87.22
63819;BME280;49970;54.976;73.248;2024-03-02T05:28:53;101811.34;;;-4.22;87.38
63819;BME280;49970;54.976;73.248;2024-03-02T05:31:19;101800.06;;;-4.28;87.28
63819;BME280;49970;54.976;73.248;2024-03-02T05:33:46;101794.03;;;-4.28;87.45
63819;BME280;49970;54.976;73.248;2024-03-02T05:36:32;101800.06;;;-4.28;86.66
63819;BME280;49970;54.976;73.248;2024-03-02T05:40:08;101797.53;;;-4.23;86.34
63819;BME280;49970;54.976;73.248;2024-03-02T05:42:34;101806.16;;;-4.22;85.80
63819;BME280;49970;54.976;73.248;2024-03-02T05:45:01;101808.81;;;-4.21;85.85
63819;BME280;49970;54.976;73.248;2024-03-02T05:47:27;101811.44;;;-4.16;86.15
63819;BME280;49970;54.976;73.248;2024-03-02T05:49:54;101793.38;;;-4.13;86.15
63819;BME280;49970;54.976;73.248;2024-03-02T05:52:20;101805.50;;;-4.09;85.77
63819;BME280;49970;54.976;73.248;2024-03-02T05:54:47;101803.81;;;-4.06;85.45
63819;BME280;49970;54.976;73.248;2024-03-02T05:57:14;101802.16;;;-3.99;85.51
63819;BME280;49970;54.976;73.248;2024-03-02T05:59:58;101805.72;;;-3.92;85.91
63819;BME280;49970;54.976;73.248;2024-03-02T06:02:24;101810.09;;;-3.87;85.67
63819;BME280;49970;54.976;73.248;2024-03-02T06:04:51;101811.06;;;-3.77;85.97
63819;BME280;49970;54.976;73.248;2024-03-02T06:07:17;101808.50;;;-3.76;85.79
63819;BME280;49970;54.976;73.248;2024-03-02T06:09:44;101812.00;;;-3.72;85.24
63819;BME280;49970;54.976;73.248;2024-03-02T06:12:10;101811.16;;;-3.68;85.27
63819;BME280;49970;54.976;73.248;2024-03-02T06:14:37;101811.16;;;-3.68;85.59
63819;BME280;49970;54.976;73.248;2024-03-02T06:17:03;101822.38;;;-3.69;85.55
63819;BME280;49970;54.976;73.248;2024-03-02T06:19:30;101812.78;;;-3.78;84.78
63819;BME280;49970;54.976;73.248;2024-03-02T06:21:56;101818.78;;;-3.82;85.06
63819;BME280;49970;54.976;73.248;2024-03-02T06:24:22;101811.81;;;-3.87;84.41
63819;BME280;49970;54.976;73.248;2024-03-02T06:27:09;101828.25;;;-3.82;84.61
63819;BME280;49970;54.976;73.248;2024-03-02T06:30:45;101821.31;;;-3.88;83.86
63819;BME280;49970;54.976;73.248;2024-03-02T06:33:11;101821.25;;;-3.89;84.33
63819;BME280;49970;54.976;73.248;2024-03-02T06:35:38;101829.13;;;-3.82;84.57
63819;BME280;49970;54.976;73.248;2024-03-02T06:38:05;101829.16;;;-3.80;84.00
63819;BME280;49970;54.976;73.248;2024-03-02T06:40:31;101832.59;;;-3.81;83.76
63819;BME280;49970;54.976;73.248;2024-03-02T06:42:58;101842.03;;;-3.86;83.65
63819;BME280;49970;54.976;73.248;2024-03-02T06:45:24;101832.31;;;-4.04;82.44
63819;BME280;49970;54.976;73.248;2024-03-02T06:47:50;101838.25;;;-4.10;83.18
63819;BME280;49970;54.976;73.248;2024-03-02T06:50:17;101836.56;;;-4.08;83.22
63819;BME280;49970;54.976;73.248;2024-03-02T06:52:43;101841.69;;;-4.11;82.47
63819;BME280;49970;54.976;73.248;2024-03-02T06:55:10;101841.75;;;-4.08;83.36
63819;BME280;49970;54.976;73.248;2024-03-02T06:57:36;101846.94;;;-4.06;83.01
63819;BME280;49970;54.976;73.248;2024-03-02T07:00:03;101840.03;;;-4.06;82.30
63819;BME280;49970;54.976;73.248;2024-03-02T07:02:31;101838.34;;;-4.05;81.85
63819;BME280;49970;54.976;73.248;2024-03-02T07:04:58;101839.97;;;-4.12;81.81
63819;BME280;49970;54.976;73.248;2024-03-02T07:07:24;101842.50;;;-4.16;81.57
63819;BME280;49970;54.976;73.248;2024-03-02T07:09:51;101835.44;;;-4.27;81.85
63819;BME280;49970;54.976;73.248;2024-03-02T07:12:17;101849.22;;;-4.29;81.37
63819;BME280;49970;54.976;73.248;2024-03-02T07:14:44;101855.19;;;-4.33;80.94
63819;BME280;49970;54.976;73.248;2024-03-02T07:17:29;101848.16;;;-4.42;81.01
63819;BME280;49970;54.976;73.248;2024-03-02T07:19:55;101851.63;;;-4.41;81.20
63819;BME280;49970;54.976;73.248;2024-03-02T07:22:41;101853.28;;;-4.46;80.73
63819;BME280;49970;54.976;73.248;2024-03-02T07:26:38;101852.28;;;-4.55;80.35
63819;BME280;49970;54.976;73.248;2024-03-02T07:30:34;101860.84;;;-4.57;80.27
63819;BME280;49970;54.976;73.248;2024-03-02T07:34:30;101848.69;;;-4.63;79.44
63819;BME280;49970;54.976;73.248;2024-03-02T07:38:03;101858.25;;;-4.59;80.34
63819;BME280;49970;54.976;73.248;2024-03-02T07:41:39;101862.44;;;-4.65;79.37
63819;BME280;49970;54.976;73.248;2024-03-02T07:45:35;101863.22;;;-4.71;79.12
63819;BME280;49970;54.976;73.248;2024-03-02T07:49:31;101859.78;;;-4.70;78.92
63819;BME280;49970;54.976;73.248;2024-03-02T07:52:17;101857.25;;;-4.67;79.05
63819;BME280;49970;54.976;73.248;2024-03-02T07:54:43;101858.13;;;-4.65;79.35
63819;BME280;49970;54.976;73.248;2024-03-02T07:57:10;101857.31;;;-4.62;79.36
63819;BME280;49970;54.976;73.248;2024-03-02T07:59:37;101849.44;;;-4.70;78.90
63819;BME280;49970;54.976;73.248;2024-03-02T08:02:03;101869.28;;;-4.69;78.60
63819;BME280;49970;54.976;73.248;2024-03-02T08:04:29;101869.25;;;-4.72;79.23
63819;BME280;49970;54.976;73.248;2024-03-02T08:06:56;101866.69;;;-4.69;78.95
63819;BME280;49970;54.976;73.248;2024-03-02T08:09:23;101877.94;;;-4.65;78.79
63819;BME280;49970;54.976;73.248;2024-03-02T08:11:49;101866.75;;;-4.66;79.02
63819;BME280;49970;54.976;73.248;2024-03-02T08:14:16;101867.59;;;-4.65;78.51
63819;BME280;49970;54.976;73.248;2024-03-02T08:16:42;101865.97;;;-4.60;78.46
63819;BME280;49970;54.976;73.248;2024-03-02T08:19:09;101870.25;;;-4.61;78.50
63819;BME280;49970;54.976;73.248;2024-03-02T08:21:36;101863.41;;;-4.59;78.72
63819;BME280;49970;54.976;73.248;2024-03-02T08:24:02;101868.63;;;-4.56;77.95
63819;BME280;49970;54.976;73.248;2024-03-02T08:26:29;101874.63;;;-4.58;77.84
63819;BME280;49970;54.976;73.248;2024-03-02T08:28:58;101879.78;;;-4.58;78.09
63819;BME280;49970;54.976;73.248;2024-03-02T08:31:25;101875.56;;;-4.55;78.70
63819;BME280;49970;54.976;73.248;2024-03-02T08:33:51;101878.22;;;-4.48;78.82
63819;BME280;49970;54.976;73.248;2024-03-02T08:36:17;101873.97;;;-4.46;78.36
63819;BME280;49970;54.976;73.248;2024-03-02T08:38:45;101871.44;;;-4.42;78.61
63819;BME280;49970;54.976;73.248;2024-03-02T08:41:11;101878.34;;;-4.39;78.16
63819;BME280;49970;54.976;73.248;2024-03-02T08:43:42;101880.13;;;-4.38;78.72
63819;BME280;49970;54.976;73.248;2024-03-02T08:46:08;101868.81;;;-4.43;78.67
63819;BME280;49970;54.976;73.248;2024-03-02T08:48:35;101874.88;;;-4.43;78.92
63819;BME280;49970;54.976;73.248;2024-03-02T08:51:01;101878.34;;;-4.42;78.48
63819;BME280;49970;54.976;73.248;2024-03-02T08:53:30;101847.06;;;-4.56;78.57
63819;BME280;49970;54.976;73.248;2024-03-02T08:55:57;101880.06;;;-4.43;78.86
63819;BME280;49970;54.976;73.248;2024-03-02T08:58:23;101864.38;;;-4.52;78.19
63819;BME280;49970;54.976;73.248;2024-03-02T09:00:50;101868.59;;;-4.57;78.26
63819;BME280;49970;54.976;73.248;2024-03-02T09:03:16;101870.34;;;-4.56;78.31
63819;BME280;49970;54.976;73.248;2024-03-02T09:05:42;101865.09;;;-4.61;78.29
63819;BME280;49970;54.976;73.248;2024-03-02T09:08:09;101865.09;;;-4.62;78.72
63819;BME280;49970;54.976;73.248;2024-03-02T09:14:25;101868.44;;;-4.68;78.70
63819;BME280;49970;54.976;73.248;2024-03-02T09:21:05;101878.59;;;-4.79;78.97
63819;BME280;49970;54.976;73.248;2024-03-02T09:23:32;101868.06;;;-4.89;79.38
63819;BME280;49970;54.976;73.248;2024-03-02T09:25:58;101875.00;;;-4.88;79.76
63819;BME280;49970;54.976;73.248;2024-03-02T09:28:25;101873.13;;;-4.95;79.37
63819;BME280;49970;54.976;73.248;2024-03-02T09:30:51;101873.88;;;-5.03;79.39
63819;BME280;49970;54.976;73.248;2024-03-02T09:33:18;101868.69;;;-5.03;79.75
63819;BME280;49970;54.976;73.248;2024-03-02T09:35:44;101874.69;;;-5.05;79.42
63819;BME280;49970;54.976;73.248;2024-03-02T09:38:10;101875.63;;;-5.02;80.15
63819;BME280;49970;54.976;73.248;2024-03-02T09:40:37;101876.50;;;-4.99;80.23
63819;BME280;49970;54.976;73.248;2024-03-02T09:43:03;101867.97;;;-4.97;79.83
63819;BME280;49970;54.976;73.248;2024-03-02T09:45:30;101877.50;;;-4.93;79.88
63819;BME280;49970;54.976;73.248;2024-03-02T09:47:57;101874.81;;;-4.97;80.24
63819;BME280;49970;54.976;73.248;2024-03-02T09:50:23;101874.00;;;-4.96;80.44
63819;BME280;49970;54.976;73.248;2024-03-02T09:52:50;101890.31;;;-4.97;80.31
63819;BME280;49970;54.976;73.248;2024-03-02T09:55:17;101868.69;;;-5.04;79.87
63819;BME280;49970;54.976;73.248;2024-03-02T09:57:47;101871.28;;;-5.03;80.44
63819;BME280;49970;54.976;73.248;2024-03-02T10:00:17;101866.16;;;-5.01;80.09
63819;BME280;49970;54.976;73.248;2024-03-02T10:02:44;101877.38;;;-4.99;80.52
63819;BME280;49970;54.976;73.248;2024-03-02T10:05:10;101877.38;;;-5.01;80.53
63819;BME280;49970;54.976;73.248;2024-03-02T10:07:38;101881.63;;;-5.03;80.41
63819;BME280;49970;54.976;73.248;2024-03-02T10:10:14;101880.59;;;-5.11;80.22
63819;BME280;49970;54.976;73.248;2024-03-02T10:12:42;101884.91;;;-5.11;80.54
63819;BME280;49970;54.976;73.248;2024-03-02T10:15:08;101879.78;;;-5.10;80.30
63819;BME280;49970;54.976;73.248;2024-03-02T10:17:35;101863.91;;;-5.30;80.17
63819;BME280;49970;54.976;73.248;2024-03-02T10:20:24;101889.16;;;-5.15;80.18
63819;BME280;49970;54.976;73.248;2024-03-02T10:22:51;101882.22;;;-5.17;80.55
63819;BME280;49970;54.976;73.248;2024-03-02T10:25:38;101893.44;;;-5.15;80.70
63819;BME280;49970;54.976;73.248;2024-03-02T10:28:05;101884.66;;;-5.27;80.95
63819;BME280;49970;54.976;73.248;2024-03-02T10:30:35;101892.41;;;-5.25;81.02
63819;BME280;49970;54.976;73.248;2024-03-02T10:33:03;101897.56;;;-5.27;80.36
63819;BME280;49970;54.976;73.248;2024-03-02T10:35:30;101888.88;;;-5.30;80.69
63819;BME280;49970;54.976;73.248;2024-03-02T10:38:04;101895.72;;;-5.32;80.87
63819;BME280;49970;54.976;73.248;2024-03-02T10:40:32;101878.31;;;-5.41;80.96
63819;BME280;49970;54.976;73.248;2024-03-02T10:42:59;101891.31;;;-5.36;80.73
63819;BME280;49970;54.976;73.248;2024-03-02T10:45:28;101892.16;;;-5.39;81.38
63819;BME280;49970;54.976;73.248;2024-03-02T10:47:55;101895.56;;;-5.40;81.05
63819;BME280;49970;54.976;73.248;2024-03-02T10:50:22;101905.00;;;-5.40;81.10
63819;BME280;49970;54.976;73.248;2024-03-02T10:52:49;101905.84;;;-5.43;81.29
63819;BME280;49970;54.976;73.248;2024-03-02T10:55:16;101897.06;;;-5.51;81.73
63819;BME280;49970;54.976;73.248;2024-03-02T10:57:51;101904.75;;;-5.54;81.45
63819;BME280;49970;54.976;73.248;2024-03-02T11:00:19;101900.34;;;-5.60;81.35
63819;BME280;49970;54.976;73.248;2024-03-02T11:03:00;101888.91;;;-5.71;81.42
63819;BME280;49970;54.976;73.248;2024-03-02T11:05:33;101902.84;;;-5.63;82.23
63819;BME280;49970;54.976;73.248;2024-03-02T11:08:06;101910.53;;;-5.64;81.88
63819;BME280;49970;54.976;73.248;2024-03-02T11:10:51;101910.50;;;-5.67;81.60
63819;BME280;49970;54.976;73.248;2024-03-02T11:13:22;101897.44;;;-5.73;82.33
63819;BME280;49970;54.976;73.248;2024-03-02T11:15:55;101901.63;;;-5.80;81.96
63819;BME280;49970;54.976;73.248;2024-03-02T11:18:22;101905.03;;;-5.81;81.99
63819;BME280;49970;54.976;73.248;2024-03-02T11:20:48;101905.94;;;-5.79;81.89
63819;BME280;49970;54.976;73.248;2024-03-02T11:23:15;101906.72;;;-5.83;82.34
63819;BME280;49970;54.976;73.248;2024-03-02T11:25:41;101915.31;;;-5.84;82.54
63819;BME280;49970;54.976;73.248;2024-03-02T11:28:08;101908.34;;;-5.88;82.39
63819;BME280;49970;54.976;73.248;2024-03-02T11:33:07;101910.06;;;-5.89;82.73
63819;BME280;49970;54.976;73.248;2024-03-02T11:35:37;101906.59;;;-5.89;82.67
63819;BME280;49970;54.976;73.248;2024-03-02T11:38:24;101903.94;;;-5.94;82.52
63819;BME280;49970;54.976;73.248;2024-03-02T11:41:12;101902.19;;;-5.95;83.18
63819;BME280;49970;54.976;73.248;2024-03-02T11:43:40;101900.38;;;-5.99;82.58
63819;BME280;49970;54.976;73.248;2024-03-02T11:46:08;101908.97;;;-5.98;83.45
63819;BME280;49970;54.976;73.248;2024-03-02T11:48:39;101910.69;;;-5.99;83.05
63819;BME280;49970;54.976;73.248;2024-03-02T11:51:05;101905.47;;;-6.02;83.21
63819;BME280;49970;54.976;73.248;2024-03-02T11:53:33;101908.94;;;-6.02;83.49
63819;BME280;49970;54.976;73.248;2024-03-02T11:56:02;101906.41;;;-5.98;83.67
63819;BME280;49970;54.976;73.248;2024-03-02T11:58:28;101911.53;;;-6.00;83.35
63819;BME280;49970;54.976;73.248;2024-03-02T12:00:56;101905.53;;;-5.99;83.62
63819;BME280;49970;54.976;73.248;2024-03-02T12:03:23;101897.78;;;-6.00;83.38
63819;BME280;49970;54.976;73.248;2024-03-02T12:05:52;101899.50;;;-5.99;83.86
63819;BME280;49970;54.976;73.248;2024-03-02T12:08:19;101897.72;;;-6.02;83.86
63819;BME280;49970;54.976;73.248;2024-03-02T12:11:01;101901.31;;;-5.97;83.66
63819;BME280;49970;54.976;73.248;2024-03-02T12:13:28;101896.16;;;-5.97;83.92
63819;BME280;49970;54.976;73.248;2024-03-02T12:15:55;101904.81;;;-5.93;83.81
63819;BME280;49970;54.976;73.248;2024-03-02T12:18:22;101893.59;;;-5.94;83.96
63819;BME280;49970;54.976;73.248;2024-03-02T12:20:50;101896.22;;;-5.91;84.05
63819;BME280;49970;54.976;73.248;2024-03-02T12:23:19;101877.94;;;-6.03;83.66
63819;BME280;49970;54.976;73.248;2024-03-02T12:25:46;101903.13;;;-5.90;83.58
63819;BME280;49970;54.976;73.248;2024-03-02T12:28:12;101901.47;;;-5.88;83.83
63819;BME280;49970;54.976;73.248;2024-03-02T12:30:46;101903.13;;;-5.93;83.58
63819;BME280;49970;54.976;73.248;2024-03-02T12:33:13;101903.94;;;-5.94;83.79
63819;BME280;49970;54.976;73.248;2024-03-02T12:35:40;101888.25;;;-6.03;83.42
63819;BME280;49970;54.976;73.248;2024-03-02T12:38:07;101899.59;;;-5.96;83.63
63819;BME280;49970;54.976;73.248;2024-03-02T12:40:33;101896.84;;;-6.03;83.56
63819;BME280;49970;54.976;73.248;2024-03-02T12:43:00;101905.59;;;-5.97;83.58
63819;BME280;49970;54.976;73.248;2024-03-02T12:45:26;101885.59;;;-6.06;83.29
63819;BME280;49970;54.976;73.248;2024-03-02T12:47:53;101873.34;;;-6.16;83.48
63819;BME280;49970;54.976;73.248;2024-03-02T12:50:20;101901.16;;;-6.03;83.96
63819;BME280;49970;54.976;73.248;2024-03-02T12:52:53;101904.56;;;-6.04;83.71
63819;BME280;49970;54.976;73.248;2024-03-02T12:55:21;101885.44;;;-6.14;83.64
63819;BME280;49970;54.976;73.248;2024-03-02T12:57:50;101901.91;;;-6.09;83.90
63819;BME280;49970;54.976;73.248;2024-03-02T13:00:19;101907.84;;;-6.11;84.10
63819;BME280;49970;54.976;73.248;2024-03-02T13:02:46;101896.59;;;-6.15;84.07
63819;BME280;49970;54.976;73.248;2024-03-02T13:05:14;101900.06;;;-6.14;83.75
63819;BME280;49970;54.976;73.248;2024-03-02T13:08:01;101901.59;;;-6.22;84.13
63819;BME280;49970;54.976;73.248;2024-03-02T13:10:31;101887.59;;;-6.32;83.85
63819;BME280;49970;54.976;73.248;2024-03-02T13:13:17;101902.41;;;-6.23;83.80
63819;BME280;49970;54.976;73.248;2024-03-02T13:15:44;101907.53;;;-6.25;83.87